sensor_id;sensor_type;location;lat;lon;timestamp;P1;durP1;ratioP1;P2;durP2;ratioP2
10056;SDS011;5068;51.286;7.518;2022-08-19T00:00:59;11.48;;;10.43;;
10056;SDS011;5068;51.286;7.518;2022-08-19T00:02:33;11.07;;;10.07;;
10056;SDS011;5068;51.286;7.518;2022-08-19T00:04:08;11.95;;;10.40;;
10056;SDS011;5068;51.286;7.518;2022-08-19T00:05:44;11.20;;;10.25;;
10056;SDS011;5068;51.286;7.518;2022-08-19T00:07:17;11.57;;;10.48;;
10056;SDS011;5068;51.286;7.518;2022-08-19T00:08:53;10.63;;;9.77;;
10056;SDS011;5068;51.286;7.518;2022-08-19T00:10:27;10.73;;;9.77;;
10056;SDS011;5068;51.286;7.518;2022-08-19T00:12:01;10.90;;;9.90;;
10056;SDS011;5068;51.286;7.518;2022-08-19T00:13:36;11.68;;;10.68;;
10056;SDS011;5068;51.286;7.518;2022-08-19T00:15:12;11.50;;;10.52;;
10056;SDS011;5068;51.286;7.518;2022-08-19T00:16:48;11.52;;;10.43;;
10056;SDS011;5068;51.286;7.518;2022-08-19T00:18:25;10.85;;;9.90;;
10056;SDS011;5068;51.286;7.518;2022-08-19T00:19:59;11.32;;;10.40;;
10056;SDS011;5068;51.286;7.518;2022-08-19T00:21:32;10.73;;;9.85;;
10056;SDS011;5068;51.286;7.518;2022-08-19T00:23:10;11.05;;;10.15;;
10056;SDS011;5068;51.286;7.518;2022-08-19T00:24:45;11.05;;;10.13;;
10056;SDS011;5068;51.286;7.518;2022-08-19T00:26:21;11.18;;;10.13;;
10056;SDS011;5068;51.286;7.518;2022-08-19T00:27:53;11.25;;;10.25;;
10056;SDS011;5068;51.286;7.518;2022-08-19T00:29:27;11.18;;;10.15;;
10056;SDS011;5068;51.286;7.518;2022-08-19T00:31:02;11.02;;;10.10;;
10056;SDS011;5068;51.286;7.518;2022-08-19T00:32:37;11.18;;;10.23;;
10056;SDS011;5068;51.286;7.518;2022-08-19T00:34:12;11.27;;;10.30;;
10056;SDS011;5068;51.286;7.518;2022-08-19T00:35:47;10.98;;;10.05;;
10056;SDS011;5068;51.286;7.518;2022-08-19T00:37:26;11.80;;;10.70;;
10056;SDS011;5068;51.286;7.518;2022-08-19T00:39:00;11.40;;;10.40;;
10056;SDS011;5068;51.286;7.518;2022-08-19T00:40:35;10.43;;;9.52;;
10056;SDS011;5068;51.286;7.518;2022-08-19T00:42:08;11.27;;;10.27;;
10056;SDS011;5068;51.286;7.518;2022-08-19T00:43:41;11.07;;;10.07;;
10056;SDS011;5068;51.286;7.518;2022-08-19T00:45:15;11.40;;;10.43;;
10056;SDS011;5068;51.286;7.518;2022-08-19T00:46:52;11.43;;;10.52;;
10056;SDS011;5068;51.286;7.518;2022-08-19T00:48:31;10.98;;;9.90;;
10056;SDS011;5068;51.286;7.518;2022-08-19T00:50:08;10.32;;;9.52;;
10056;SDS011;5068;51.286;7.518;2022-08-19T00:51:42;11.63;;;10.63;;
10056;SDS011;5068;51.286;7.518;2022-08-19T00:53:20;10.20;;;9.40;;
10056;SDS011;5068;51.286;7.518;2022-08-19T00:54:58;10.65;;;9.75;;
10056;SDS011;5068;51.286;7.518;2022-08-19T00:56:34;10.40;;;9.40;;
10056;SDS011;5068;51.286;7.518;2022-08-19T00:58:12;10.88;;;9.82;;
10056;SDS011;5068;51.286;7.518;2022-08-19T00:59:51;10.85;;;9.95;;
10056;SDS011;5068;51.286;7.518;2022-08-19T01:01:35;10.95;;;9.80;;
10056;SDS011;5068;51.286;7.518;2022-08-19T01:03:17;10.60;;;9.70;;
10056;SDS011;5068;51.286;7.518;2022-08-19T01:04:54;11.15;;;10.18;;
10056;SDS011;5068;51.286;7.518;2022-08-19T01:06:33;10.98;;;9.98;;
10056;SDS011;5068;51.286;7.518;2022-08-19T01:08:17;10.85;;;9.95;;
10056;SDS011;5068;51.286;7.518;2022-08-19T01:09:54;9.88;;;8.98;;
10056;SDS011;5068;51.286;7.518;2022-08-19T01:11:33;10.27;;;9.35;;
10056;SDS011;5068;51.286;7.518;2022-08-19T01:13:16;10.63;;;9.68;;
10056;SDS011;5068;51.286;7.518;2022-08-19T01:14:56;10.88;;;9.88;;
10056;SDS011;5068;51.286;7.518;2022-08-19T01:16:34;11.05;;;10.05;;
10056;SDS011;5068;51.286;7.518;2022-08-19T01:18:12;10.07;;;9.27;;
10056;SDS011;5068;51.286;7.518;2022-08-19T01:19:52;10.50;;;9.60;;
10056;SDS011;5068;51.286;7.518;2022-08-19T01:21:28;10.63;;;9.75;;
10056;SDS011;5068;51.286;7.518;2022-08-19T01:23:09;9.75;;;8.90;;
10056;SDS011;5068;51.286;7.518;2022-08-19T01:24:42;9.75;;;8.95;;
10056;SDS011;5068;51.286;7.518;2022-08-19T01:26:21;11.07;;;10.15;;
10056;SDS011;5068;51.286;7.518;2022-08-19T01:27:57;11.05;;;10.07;;
10056;SDS011;5068;51.286;7.518;2022-08-19T01:29:42;10.55;;;9.65;;
10056;SDS011;5068;51.286;7.518;2022-08-19T01:31:19;9.73;;;8.93;;
10056;SDS011;5068;51.286;7.518;2022-08-19T01:32:58;10.50;;;9.50;;
10056;SDS011;5068;51.286;7.518;2022-08-19T01:34:33;10.50;;;9.63;;
10056;SDS011;5068;51.286;7.518;2022-08-19T01:36:07;10.45;;;9.52;;
10056;SDS011;5068;51.286;7.518;2022-08-19T01:37:45;11.02;;;10.02;;
10056;SDS011;5068;51.286;7.518;2022-08-19T01:39:25;10.05;;;9.25;;
10056;SDS011;5068;51.286;7.518;2022-08-19T01:40:58;10.77;;;9.82;;
10056;SDS011;5068;51.286;7.518;2022-08-19T01:42:40;10.45;;;9.45;;
10056;SDS011;5068;51.286;7.518;2022-08-19T01:44:12;10.75;;;9.73;;
10056;SDS011;5068;51.286;7.518;2022-08-19T01:45:49;10.88;;;9.40;;
10056;SDS011;5068;51.286;7.518;2022-08-19T01:47:24;10.63;;;9.38;;
10056;SDS011;5068;51.286;7.518;2022-08-19T01:48:58;10.68;;;9.77;;
10056;SDS011;5068;51.286;7.518;2022-08-19T01:50:32;10.30;;;9.40;;
10056;SDS011;5068;51.286;7.518;2022-08-19T01:52:07;9.18;;;8.48;;
10056;SDS011;5068;51.286;7.518;2022-08-19T01:53:41;10.05;;;9.23;;
10056;SDS011;5068;51.286;7.518;2022-08-19T01:55:17;9.85;;;9.05;;
10056;SDS011;5068;51.286;7.518;2022-08-19T01:56:55;10.80;;;9.80;;
10056;SDS011;5068;51.286;7.518;2022-08-19T01:58:36;9.63;;;8.82;;
10056;SDS011;5068;51.286;7.518;2022-08-19T02:00:21;9.68;;;8.77;;
10056;SDS011;5068;51.286;7.518;2022-08-19T02:02:00;9.20;;;8.32;;
10056;SDS011;5068;51.286;7.518;2022-08-19T02:03:35;10.43;;;9.55;;
10056;SDS011;5068;51.286;7.518;2022-08-19T02:05:13;9.77;;;8.88;;
10056;SDS011;5068;51.286;7.518;2022-08-19T02:06:45;9.85;;;9.00;;
10056;SDS011;5068;51.286;7.518;2022-08-19T02:08:19;9.95;;;9.05;;
10056;SDS011;5068;51.286;7.518;2022-08-19T02:09:52;9.70;;;8.90;;
10056;SDS011;5068;51.286;7.518;2022-08-19T02:11:29;10.60;;;9.27;;
10056;SDS011;5068;51.286;7.518;2022-08-19T02:13:06;9.30;;;8.45;;
10056;SDS011;5068;51.286;7.518;2022-08-19T02:14:41;9.98;;;9.07;;
10056;SDS011;5068;51.286;7.518;2022-08-19T02:16:16;9.85;;;9.02;;
10056;SDS011;5068;51.286;7.518;2022-08-19T02:17:50;9.80;;;8.95;;
10056;SDS011;5068;51.286;7.518;2022-08-19T02:19:23;9.57;;;8.75;;
10056;SDS011;5068;51.286;7.518;2022-08-19T02:20:57;9.82;;;9.00;;
10056;SDS011;5068;51.286;7.518;2022-08-19T02:22:30;9.52;;;8.68;;
10056;SDS011;5068;51.286;7.518;2022-08-19T02:24:04;9.10;;;8.30;;
10056;SDS011;5068;51.286;7.518;2022-08-19T02:25:38;9.13;;;8.27;;
10056;SDS011;5068;51.286;7.518;2022-08-19T02:27:13;9.65;;;8.85;;
10056;SDS011;5068;51.286;7.518;2022-08-19T02:28:47;8.80;;;8.00;;
10056;SDS011;5068;51.286;7.518;2022-08-19T02:30:21;9.93;;;9.02;;
10056;SDS011;5068;51.286;7.518;2022-08-19T02:31:55;9.63;;;8.73;;
10056;SDS011;5068;51.286;7.518;2022-08-19T02:33:29;10.00;;;9.00;;
10056;SDS011;5068;51.286;7.518;2022-08-19T02:35:03;10.05;;;9.05;;
10056;SDS011;5068;51.286;7.518;2022-08-19T02:36:43;9.40;;;8.50;;
10056;SDS011;5068;51.286;7.518;2022-08-19T02:38:22;9.60;;;8.70;;
10056;SDS011;5068;51.286;7.518;2022-08-19T02:39:58;9.50;;;8.65;;
10056;SDS011;5068;51.286;7.518;2022-08-19T02:41:31;8.75;;;8.05;;
10056;SDS011;5068;51.286;7.518;2022-08-19T02:43:08;8.73;;;7.97;;
10056;SDS011;5068;51.286;7.518;2022-08-19T02:44:41;8.95;;;8.15;;
10056;SDS011;5068;51.286;7.518;2022-08-19T02:46:15;11.73;;;8.30;;
10056;SDS011;5068;51.286;7.518;2022-08-19T02:47:52;9.13;;;8.38;;
10056;SDS011;5068;51.286;7.518;2022-08-19T02:49:25;8.98;;;8.18;;
10056;SDS011;5068;51.286;7.518;2022-08-19T02:50:58;9.80;;;8.80;;
10056;SDS011;5068;51.286;7.518;2022-08-19T02:52:31;8.93;;;8.15;;
10056;SDS011;5068;51.286;7.518;2022-08-19T02:54:06;10.43;;;9.30;;
10056;SDS011;5068;51.286;7.518;2022-08-19T02:55:43;9.30;;;8.50;;
10056;SDS011;5068;51.286;7.518;2022-08-19T02:57:18;9.55;;;8.55;;
10056;SDS011;5068;51.286;7.518;2022-08-19T02:58:51;9.23;;;8.43;;
10056;SDS011;5068;51.286;7.518;2022-08-19T03:02:22;9.40;;;8.52;;
10056;SDS011;5068;51.286;7.518;2022-08-19T03:03:57;8.05;;;7.43;;
10056;SDS011;5068;51.286;7.518;2022-08-19T03:05:35;9.48;;;8.68;;
10056;SDS011;5068;51.286;7.518;2022-08-19T03:07:26;9.30;;;8.43;;
10056;SDS011;5068;51.286;7.518;2022-08-19T03:09:00;9.10;;;8.27;;
10056;SDS011;5068;51.286;7.518;2022-08-19T03:10:33;9.00;;;8.20;;
10056;SDS011;5068;51.286;7.518;2022-08-19T03:12:15;9.93;;;9.00;;
10056;SDS011;5068;51.286;7.518;2022-08-19T03:13:49;9.20;;;8.40;;
10056;SDS011;5068;51.286;7.518;2022-08-19T03:15:25;10.07;;;8.82;;
10056;SDS011;5068;51.286;7.518;2022-08-19T03:16:59;8.70;;;7.90;;
10056;SDS011;5068;51.286;7.518;2022-08-19T03:18:34;9.23;;;8.43;;
10056;SDS011;5068;51.286;7.518;2022-08-19T03:20:08;8.70;;;7.80;;
10056;SDS011;5068;51.286;7.518;2022-08-19T03:21:44;9.13;;;8.32;;
10056;SDS011;5068;51.286;7.518;2022-08-19T03:23:18;8.65;;;7.85;;
10056;SDS011;5068;51.286;7.518;2022-08-19T03:24:51;8.68;;;7.97;;
10056;SDS011;5068;51.286;7.518;2022-08-19T03:26:25;8.50;;;7.80;;
10056;SDS011;5068;51.286;7.518;2022-08-19T03:28:00;9.63;;;8.63;;
10056;SDS011;5068;51.286;7.518;2022-08-19T03:29:34;9.73;;;8.82;;
10056;SDS011;5068;51.286;7.518;2022-08-19T03:31:14;8.48;;;7.78;;
10056;SDS011;5068;51.286;7.518;2022-08-19T03:33:10;8.00;;;7.38;;
10056;SDS011;5068;51.286;7.518;2022-08-19T03:34:48;8.95;;;8.15;;
10056;SDS011;5068;51.286;7.518;2022-08-19T03:36:24;8.35;;;7.65;;
10056;SDS011;5068;51.286;7.518;2022-08-19T03:38:00;9.85;;;8.45;;
10056;SDS011;5068;51.286;7.518;2022-08-19T03:39:33;8.43;;;7.63;;
10056;SDS011;5068;51.286;7.518;2022-08-19T03:41:09;8.45;;;7.65;;
10056;SDS011;5068;51.286;7.518;2022-08-19T03:42:45;8.68;;;7.88;;
10056;SDS011;5068;51.286;7.518;2022-08-19T03:44:20;8.35;;;7.65;;
10056;SDS011;5068;51.286;7.518;2022-08-19T03:46:04;8.95;;;8.10;;
10056;SDS011;5068;51.286;7.518;2022-08-19T03:47:41;8.57;;;7.88;;
10056;SDS011;5068;51.286;7.518;2022-08-19T03:49:15;8.82;;;8.02;;
10056;SDS011;5068;51.286;7.518;2022-08-19T03:50:49;8.32;;;7.60;;
10056;SDS011;5068;51.286;7.518;2022-08-19T03:52:25;9.38;;;8.32;;
10056;SDS011;5068;51.286;7.518;2022-08-19T03:53:59;9.10;;;8.27;;
10056;SDS011;5068;51.286;7.518;2022-08-19T03:55:39;8.35;;;7.55;;
10056;SDS011;5068;51.286;7.518;2022-08-19T03:57:13;8.73;;;7.93;;
10056;SDS011;5068;51.286;7.518;2022-08-19T03:58:46;9.43;;;7.78;;
10056;SDS011;5068;51.286;7.518;2022-08-19T04:00:20;8.93;;;8.02;;
10056;SDS011;5068;51.286;7.518;2022-08-19T04:01:56;7.68;;;7.07;;
10056;SDS011;5068;51.286;7.518;2022-08-19T04:03:32;7.85;;;7.15;;
10056;SDS011;5068;51.286;7.518;2022-08-19T04:05:07;8.27;;;7.45;;
10056;SDS011;5068;51.286;7.518;2022-08-19T04:06:41;8.07;;;7.28;;
10056;SDS011;5068;51.286;7.518;2022-08-19T04:08:15;7.47;;;6.75;;
10056;SDS011;5068;51.286;7.518;2022-08-19T04:09:50;8.65;;;7.82;;
10056;SDS011;5068;51.286;7.518;2022-08-19T04:11:26;8.00;;;7.28;;
10056;SDS011;5068;51.286;7.518;2022-08-19T04:13:14;7.72;;;7.03;;
10056;SDS011;5068;51.286;7.518;2022-08-19T04:14:49;9.10;;;8.20;;
10056;SDS011;5068;51.286;7.518;2022-08-19T04:16:23;8.75;;;7.85;;
10056;SDS011;5068;51.286;7.518;2022-08-19T04:18:07;7.57;;;6.93;;
10056;SDS011;5068;51.286;7.518;2022-08-19T04:19:41;8.00;;;7.30;;
10056;SDS011;5068;51.286;7.518;2022-08-19T04:21:16;8.20;;;7.40;;
10056;SDS011;5068;51.286;7.518;2022-08-19T04:22:52;9.15;;;8.15;;
10056;SDS011;5068;51.286;7.518;2022-08-19T04:24:25;8.23;;;7.43;;
10056;SDS011;5068;51.286;7.518;2022-08-19T04:25:59;8.82;;;7.40;;
10056;SDS011;5068;51.286;7.518;2022-08-19T04:27:35;8.73;;;7.93;;
10056;SDS011;5068;51.286;7.518;2022-08-19T04:29:10;7.80;;;7.03;;
10056;SDS011;5068;51.286;7.518;2022-08-19T04:30:46;8.10;;;7.40;;
10056;SDS011;5068;51.286;7.518;2022-08-19T04:32:22;8.77;;;7.82;;
10056;SDS011;5068;51.286;7.518;2022-08-19T04:33:57;8.05;;;7.35;;
10056;SDS011;5068;51.286;7.518;2022-08-19T04:35:37;8.10;;;7.40;;
10056;SDS011;5068;51.286;7.518;2022-08-19T04:37:12;8.30;;;7.50;;
10056;SDS011;5068;51.286;7.518;2022-08-19T04:38:45;8.43;;;7.63;;
10056;SDS011;5068;51.286;7.518;2022-08-19T04:40:18;9.00;;;7.70;;
10056;SDS011;5068;51.286;7.518;2022-08-19T04:42:09;7.85;;;7.15;;
10056;SDS011;5068;51.286;7.518;2022-08-19T04:44:01;8.20;;;7.50;;
10056;SDS011;5068;51.286;7.518;2022-08-19T04:45:36;10.90;;;8.07;;
10056;SDS011;5068;51.286;7.518;2022-08-19T04:47:15;8.10;;;7.15;;
10056;SDS011;5068;51.286;7.518;2022-08-19T04:49:09;8.93;;;7.68;;
10056;SDS011;5068;51.286;7.518;2022-08-19T04:50:45;8.13;;;7.40;;
10056;SDS011;5068;51.286;7.518;2022-08-19T04:52:19;8.27;;;7.47;;
10056;SDS011;5068;51.286;7.518;2022-08-19T04:53:53;8.27;;;7.47;;
10056;SDS011;5068;51.286;7.518;2022-08-19T04:55:26;9.00;;;8.10;;
10056;SDS011;5068;51.286;7.518;2022-08-19T04:57:00;8.57;;;7.70;;
10056;SDS011;5068;51.286;7.518;2022-08-19T04:58:35;7.63;;;6.95;;
10056;SDS011;5068;51.286;7.518;2022-08-19T05:00:10;8.48;;;7.78;;
10056;SDS011;5068;51.286;7.518;2022-08-19T05:01:45;7.95;;;7.25;;
10056;SDS011;5068;51.286;7.518;2022-08-19T05:03:21;8.30;;;7.50;;
10056;SDS011;5068;51.286;7.518;2022-08-19T05:05:02;8.55;;;7.65;;
10056;SDS011;5068;51.286;7.518;2022-08-19T05:06:38;8.75;;;7.90;;
10056;SDS011;5068;51.286;7.518;2022-08-19T05:08:12;9.02;;;8.23;;
10056;SDS011;5068;51.286;7.518;2022-08-19T05:10:02;8.07;;;7.35;;
10056;SDS011;5068;51.286;7.518;2022-08-19T05:11:38;8.52;;;7.72;;
10056;SDS011;5068;51.286;7.518;2022-08-19T05:13:11;8.35;;;7.55;;
10056;SDS011;5068;51.286;7.518;2022-08-19T05:14:46;8.85;;;7.95;;
10056;SDS011;5068;51.286;7.518;2022-08-19T05:16:21;9.13;;;8.20;;
10056;SDS011;5068;51.286;7.518;2022-08-19T05:17:56;9.00;;;7.78;;
10056;SDS011;5068;51.286;7.518;2022-08-19T05:19:48;8.30;;;7.45;;
10056;SDS011;5068;51.286;7.518;2022-08-19T05:21:43;8.85;;;7.90;;
10056;SDS011;5068;51.286;7.518;2022-08-19T05:23:35;8.23;;;7.43;;
10056;SDS011;5068;51.286;7.518;2022-08-19T05:25:09;8.15;;;7.40;;
10056;SDS011;5068;51.286;7.518;2022-08-19T05:26:48;8.18;;;7.40;;
10056;SDS011;5068;51.286;7.518;2022-08-19T05:28:23;8.13;;;7.32;;
10056;SDS011;5068;51.286;7.518;2022-08-19T05:29:56;8.18;;;7.45;;
10056;SDS011;5068;51.286;7.518;2022-08-19T05:31:29;8.02;;;7.32;;
10056;SDS011;5068;51.286;7.518;2022-08-19T05:33:04;8.07;;;7.38;;
10056;SDS011;5068;51.286;7.518;2022-08-19T05:34:37;9.07;;;7.45;;
10056;SDS011;5068;51.286;7.518;2022-08-19T05:36:11;8.52;;;7.22;;
10056;SDS011;5068;51.286;7.518;2022-08-19T05:37:46;8.02;;;7.28;;
10056;SDS011;5068;51.286;7.518;2022-08-19T05:39:27;8.60;;;7.70;;
10056;SDS011;5068;51.286;7.518;2022-08-19T05:41:06;8.40;;;7.50;;
10056;SDS011;5068;51.286;7.518;2022-08-19T05:42:41;8.75;;;7.95;;
10056;SDS011;5068;51.286;7.518;2022-08-19T05:44:25;10.00;;;8.30;;
10056;SDS011;5068;51.286;7.518;2022-08-19T05:46:01;10.05;;;8.40;;
10056;SDS011;5068;51.286;7.518;2022-08-19T05:47:35;9.38;;;8.45;;
10056;SDS011;5068;51.286;7.518;2022-08-19T05:49:13;8.63;;;7.88;;
10056;SDS011;5068;51.286;7.518;2022-08-19T05:50:47;9.60;;;7.82;;
10056;SDS011;5068;51.286;7.518;2022-08-19T05:52:22;8.32;;;7.53;;
10056;SDS011;5068;51.286;7.518;2022-08-19T05:53:58;9.80;;;8.15;;
10056;SDS011;5068;51.286;7.518;2022-08-19T05:55:31;8.25;;;7.45;;
10056;SDS011;5068;51.286;7.518;2022-08-19T05:57:05;8.75;;;7.95;;
10056;SDS011;5068;51.286;7.518;2022-08-19T05:58:44;8.50;;;7.63;;
10056;SDS011;5068;51.286;7.518;2022-08-19T06:00:17;8.50;;;7.63;;
10056;SDS011;5068;51.286;7.518;2022-08-19T06:01:55;8.13;;;7.32;;
10056;SDS011;5068;51.286;7.518;2022-08-19T06:03:29;8.30;;;7.55;;
10056;SDS011;5068;51.286;7.518;2022-08-19T06:05:04;11.52;;;7.53;;
10056;SDS011;5068;51.286;7.518;2022-08-19T06:06:40;8.23;;;7.43;;
10056;SDS011;5068;51.286;7.518;2022-08-19T06:08:13;10.98;;;8.30;;
10056;SDS011;5068;51.286;7.518;2022-08-19T06:09:51;8.63;;;7.80;;
10056;SDS011;5068;51.286;7.518;2022-08-19T06:11:32;10.15;;;7.35;;
10056;SDS011;5068;51.286;7.518;2022-08-19T06:13:09;9.75;;;7.40;;
10056;SDS011;5068;51.286;7.518;2022-08-19T06:14:43;8.70;;;7.85;;
10056;SDS011;5068;51.286;7.518;2022-08-19T06:16:19;9.73;;;8.75;;
10056;SDS011;5068;51.286;7.518;2022-08-19T06:17:53;8.55;;;7.70;;
10056;SDS011;5068;51.286;7.518;2022-08-19T06:19:27;8.50;;;7.80;;
10056;SDS011;5068;51.286;7.518;2022-08-19T06:21:02;8.85;;;7.97;;
10056;SDS011;5068;51.286;7.518;2022-08-19T06:22:37;8.75;;;7.90;;
10056;SDS011;5068;51.286;7.518;2022-08-19T06:24:13;8.88;;;8.00;;
10056;SDS011;5068;51.286;7.518;2022-08-19T06:25:50;10.82;;;8.65;;
10056;SDS011;5068;51.286;7.518;2022-08-19T06:27:24;9.95;;;8.57;;
10056;SDS011;5068;51.286;7.518;2022-08-19T06:28:57;10.13;;;9.13;;
10056;SDS011;5068;51.286;7.518;2022-08-19T06:30:31;12.27;;;10.98;;
10056;SDS011;5068;51.286;7.518;2022-08-19T06:32:05;12.05;;;10.82;;
10056;SDS011;5068;51.286;7.518;2022-08-19T06:33:38;12.23;;;11.02;;
10056;SDS011;5068;51.286;7.518;2022-08-19T06:35:11;12.02;;;10.93;;
10056;SDS011;5068;51.286;7.518;2022-08-19T06:36:46;11.80;;;10.68;;
10056;SDS011;5068;51.286;7.518;2022-08-19T06:38:24;10.57;;;9.57;;
10056;SDS011;5068;51.286;7.518;2022-08-19T06:39:56;10.48;;;9.27;;
10056;SDS011;5068;51.286;7.518;2022-08-19T06:41:33;10.52;;;9.52;;
10056;SDS011;5068;51.286;7.518;2022-08-19T06:43:20;12.43;;;10.73;;
10056;SDS011;5068;51.286;7.518;2022-08-19T06:44:59;11.82;;;10.60;;
10056;SDS011;5068;51.286;7.518;2022-08-19T06:46:40;12.15;;;10.95;;
10056;SDS011;5068;51.286;7.518;2022-08-19T06:48:23;11.00;;;9.90;;
10056;SDS011;5068;51.286;7.518;2022-08-19T06:49:58;12.75;;;10.25;;
10056;SDS011;5068;51.286;7.518;2022-08-19T06:51:36;10.38;;;9.48;;
10056;SDS011;5068;51.286;7.518;2022-08-19T06:53:14;10.40;;;9.35;;
10056;SDS011;5068;51.286;7.518;2022-08-19T06:54:49;12.15;;;10.27;;
10056;SDS011;5068;51.286;7.518;2022-08-19T06:56:28;10.73;;;9.73;;
10056;SDS011;5068;51.286;7.518;2022-08-19T06:58:06;11.38;;;10.23;;
10056;SDS011;5068;51.286;7.518;2022-08-19T06:59:40;11.55;;;10.38;;
10056;SDS011;5068;51.286;7.518;2022-08-19T07:01:13;12.00;;;10.85;;
10056;SDS011;5068;51.286;7.518;2022-08-19T07:02:47;14.48;;;10.68;;
10056;SDS011;5068;51.286;7.518;2022-08-19T07:04:29;11.90;;;10.38;;
10056;SDS011;5068;51.286;7.518;2022-08-19T07:06:05;13.15;;;11.18;;
10056;SDS011;5068;51.286;7.518;2022-08-19T07:08:02;13.45;;;11.77;;
10056;SDS011;5068;51.286;7.518;2022-08-19T07:09:37;15.30;;;13.90;;
10056;SDS011;5068;51.286;7.518;2022-08-19T07:11:27;15.18;;;13.77;;
10056;SDS011;5068;51.286;7.518;2022-08-19T07:13:06;20.23;;;15.55;;
10056;SDS011;5068;51.286;7.518;2022-08-19T07:14:39;16.05;;;14.45;;
10056;SDS011;5068;51.286;7.518;2022-08-19T07:16:13;16.05;;;14.45;;
10056;SDS011;5068;51.286;7.518;2022-08-19T07:17:59;16.80;;;15.05;;
10056;SDS011;5068;51.286;7.518;2022-08-19T07:19:34;15.98;;;14.57;;
10056;SDS011;5068;51.286;7.518;2022-08-19T07:21:11;17.00;;;15.30;;
10056;SDS011;5068;51.286;7.518;2022-08-19T07:22:47;16.52;;;14.85;;
10056;SDS011;5068;51.286;7.518;2022-08-19T07:24:23;18.15;;;15.50;;
10056;SDS011;5068;51.286;7.518;2022-08-19T07:26:04;15.98;;;14.35;;
10056;SDS011;5068;51.286;7.518;2022-08-19T07:27:39;15.93;;;14.43;;
10056;SDS011;5068;51.286;7.518;2022-08-19T07:29:18;15.15;;;13.75;;
10056;SDS011;5068;51.286;7.518;2022-08-19T07:30:56;15.40;;;13.98;;
10056;SDS011;5068;51.286;7.518;2022-08-19T07:32:29;15.77;;;14.15;;
10056;SDS011;5068;51.286;7.518;2022-08-19T07:34:03;15.32;;;13.73;;
10056;SDS011;5068;51.286;7.518;2022-08-19T07:35:39;14.77;;;13.27;;
10056;SDS011;5068;51.286;7.518;2022-08-19T07:37:12;14.07;;;12.73;;
10056;SDS011;5068;51.286;7.518;2022-08-19T07:38:47;14.98;;;13.40;;
10056;SDS011;5068;51.286;7.518;2022-08-19T07:40:22;13.50;;;12.20;;
10056;SDS011;5068;51.286;7.518;2022-08-19T07:41:57;15.73;;;12.32;;
10056;SDS011;5068;51.286;7.518;2022-08-19T07:43:32;14.35;;;12.75;;
10056;SDS011;5068;51.286;7.518;2022-08-19T07:45:08;12.98;;;11.65;;
10056;SDS011;5068;51.286;7.518;2022-08-19T07:46:43;14.15;;;12.85;;
10056;SDS011;5068;51.286;7.518;2022-08-19T07:48:24;13.82;;;12.52;;
10056;SDS011;5068;51.286;7.518;2022-08-19T07:49:59;13.57;;;12.27;;
10056;SDS011;5068;51.286;7.518;2022-08-19T07:51:39;14.48;;;11.63;;
10056;SDS011;5068;51.286;7.518;2022-08-19T07:53:12;13.50;;;12.20;;
10056;SDS011;5068;51.286;7.518;2022-08-19T07:54:46;11.75;;;10.65;;
10056;SDS011;5068;51.286;7.518;2022-08-19T07:56:21;11.57;;;10.57;;
10056;SDS011;5068;51.286;7.518;2022-08-19T07:57:54;12.00;;;10.85;;
10056;SDS011;5068;51.286;7.518;2022-08-19T07:59:28;11.00;;;9.88;;
10056;SDS011;5068;51.286;7.518;2022-08-19T08:01:03;11.35;;;10.30;;
10056;SDS011;5068;51.286;7.518;2022-08-19T08:02:39;11.55;;;10.45;;
10056;SDS011;5068;51.286;7.518;2022-08-19T08:04:14;10.68;;;9.60;;
10056;SDS011;5068;51.286;7.518;2022-08-19T08:06:05;10.63;;;9.60;;
10056;SDS011;5068;51.286;7.518;2022-08-19T08:07:58;15.73;;;10.70;;
10056;SDS011;5068;51.286;7.518;2022-08-19T08:09:49;12.55;;;11.25;;
10056;SDS011;5068;51.286;7.518;2022-08-19T08:11:29;13.52;;;10.43;;
10056;SDS011;5068;51.286;7.518;2022-08-19T08:13:03;13.45;;;10.43;;
10056;SDS011;5068;51.286;7.518;2022-08-19T08:14:42;12.05;;;10.95;;
10056;SDS011;5068;51.286;7.518;2022-08-19T08:16:27;11.50;;;10.50;;
10056;SDS011;5068;51.286;7.518;2022-08-19T08:18:02;12.40;;;11.18;;
10056;SDS011;5068;51.286;7.518;2022-08-19T08:19:38;12.63;;;11.35;;
10056;SDS011;5068;51.286;7.518;2022-08-19T08:21:12;12.05;;;10.55;;
10056;SDS011;5068;51.286;7.518;2022-08-19T08:22:46;12.57;;;11.38;;
10056;SDS011;5068;51.286;7.518;2022-08-19T08:24:38;11.35;;;10.25;;
10056;SDS011;5068;51.286;7.518;2022-08-19T08:26:11;10.65;;;9.65;;
10056;SDS011;5068;51.286;7.518;2022-08-19T08:27:46;11.40;;;10.13;;
10056;SDS011;5068;51.286;7.518;2022-08-19T08:29:25;11.43;;;9.52;;
10056;SDS011;5068;51.286;7.518;2022-08-19T08:31:05;10.60;;;9.60;;
10056;SDS011;5068;51.286;7.518;2022-08-19T08:32:42;10.25;;;9.18;;
10056;SDS011;5068;51.286;7.518;2022-08-19T08:34:15;9.70;;;8.70;;
10056;SDS011;5068;51.286;7.518;2022-08-19T08:35:49;12.00;;;10.00;;
10056;SDS011;5068;51.286;7.518;2022-08-19T08:37:24;12.32;;;11.02;;
10056;SDS011;5068;51.286;7.518;2022-08-19T08:38:58;10.68;;;9.65;;
10056;SDS011;5068;51.286;7.518;2022-08-19T08:40:33;10.45;;;9.45;;
10056;SDS011;5068;51.286;7.518;2022-08-19T08:42:17;10.43;;;9.43;;
10056;SDS011;5068;51.286;7.518;2022-08-19T08:43:59;10.48;;;9.43;;
10056;SDS011;5068;51.286;7.518;2022-08-19T08:45:38;9.95;;;9.02;;
10056;SDS011;5068;51.286;7.518;2022-08-19T08:47:24;10.15;;;8.95;;
10056;SDS011;5068;51.286;7.518;2022-08-19T08:49:15;8.40;;;7.60;;
10056;SDS011;5068;51.286;7.518;2022-08-19T08:51:03;9.60;;;8.70;;
10056;SDS011;5068;51.286;7.518;2022-08-19T08:52:43;9.55;;;8.65;;
10056;SDS011;5068;51.286;7.518;2022-08-19T08:54:23;9.45;;;8.65;;
10056;SDS011;5068;51.286;7.518;2022-08-19T08:56:01;9.98;;;9.15;;
10056;SDS011;5068;51.286;7.518;2022-08-19T08:57:39;10.52;;;9.52;;
10056;SDS011;5068;51.286;7.518;2022-08-19T08:59:23;10.48;;;9.48;;
10056;SDS011;5068;51.286;7.518;2022-08-19T09:01:03;9.15;;;8.32;;
10056;SDS011;5068;51.286;7.518;2022-08-19T09:02:37;9.27;;;8.48;;
10056;SDS011;5068;51.286;7.518;2022-08-19T09:04:15;9.55;;;8.60;;
10056;SDS011;5068;51.286;7.518;2022-08-19T09:05:51;7.90;;;7.20;;
10056;SDS011;5068;51.286;7.518;2022-08-19T09:07:36;7.10;;;6.50;;
10056;SDS011;5068;51.286;7.518;2022-08-19T09:09:26;7.13;;;6.53;;
10056;SDS011;5068;51.286;7.518;2022-08-19T09:11:06;6.65;;;6.10;;
10056;SDS011;5068;51.286;7.518;2022-08-19T09:13:07;8.00;;;6.30;;
10056;SDS011;5068;51.286;7.518;2022-08-19T09:15:08;7.15;;;6.60;;
10056;SDS011;5068;51.286;7.518;2022-08-19T09:16:45;7.53;;;6.40;;
10056;SDS011;5068;51.286;7.518;2022-08-19T09:18:20;6.50;;;5.90;;
10056;SDS011;5068;51.286;7.518;2022-08-19T09:19:56;6.35;;;5.72;;
10056;SDS011;5068;51.286;7.518;2022-08-19T09:21:36;5.78;;;5.20;;
10056;SDS011;5068;51.286;7.518;2022-08-19T09:23:11;5.63;;;5.13;;
10056;SDS011;5068;51.286;7.518;2022-08-19T09:24:44;6.75;;;4.65;;
10056;SDS011;5068;51.286;7.518;2022-08-19T09:26:18;5.45;;;4.95;;
10056;SDS011;5068;51.286;7.518;2022-08-19T09:28:14;6.35;;;5.43;;
10056;SDS011;5068;51.286;7.518;2022-08-19T09:29:57;5.13;;;4.65;;
10056;SDS011;5068;51.286;7.518;2022-08-19T09:31:32;5.32;;;4.82;;
10056;SDS011;5068;51.286;7.518;2022-08-19T09:33:05;6.68;;;5.68;;
10056;SDS011;5068;51.286;7.518;2022-08-19T09:34:39;5.30;;;4.82;;
10056;SDS011;5068;51.286;7.518;2022-08-19T09:36:17;6.30;;;4.93;;
10056;SDS011;5068;51.286;7.518;2022-08-19T09:38:05;5.35;;;4.55;;
10056;SDS011;5068;51.286;7.518;2022-08-19T09:39:40;5.60;;;5.07;;
10056;SDS011;5068;51.286;7.518;2022-08-19T09:41:23;5.53;;;5.13;;
10056;SDS011;5068;51.286;7.518;2022-08-19T09:42:59;5.03;;;4.53;;
10056;SDS011;5068;51.286;7.518;2022-08-19T09:44:40;4.82;;;4.43;;
10056;SDS011;5068;51.286;7.518;2022-08-19T09:46:14;5.50;;;4.97;;
10056;SDS011;5068;51.286;7.518;2022-08-19T09:47:50;5.30;;;4.80;;
10056;SDS011;5068;51.286;7.518;2022-08-19T09:49:26;6.18;;;5.68;;